Time;durP1;ratioP1;P1;durP2;ratioP2;P2;SDS_P1;SDS_P2;PMS_P1;PMS_P2;Temp;Humidity;BMP_temperature;BMP_pressure;BME280_temperature;BME280_humidity;BME280_pressure;Samples;Min_cycle;Max_cycle;Signal;HPM_P1;HPM_P2
2022/11/27 00:02:18;;;;;;;27.67;11.93;;;;;0.20;97531.00;;;;8495367;28;20854;-69
2022/11/27 00:06:24;;;;;;;27.77;11.83;;;;;0.10;97531.00;;;;8497130;28;20724;-68
2022/11/27 00:11:04;;;;;;;25.37;9.47;;;;;0.10;97533.00;;;;8497464;28;20243;-69
2022/11/27 00:15:08;;;;;;;19.30;8.80;;;;;0.10;97526.00;;;;8498689;28;20199;-69
2022/11/27 00:19:17;;;;;;;23.37;8.67;;;;;0.20;97525.00;;;;8498591;28;20624;-70
2022/11/27 00:23:20;;;;;;;20.67;7.70;;;;;0.10;97517.00;;;;8499199;28;20205;-69
2022/11/27 00:27:23;;;;;;;19.37;8.43;;;;;0.20;97510.00;;;;8497596;28;20212;-70
2022/11/27 00:31:29;;;;;;;23.30;9.63;;;;;0.10;97496.00;;;;8496284;28;20539;-70
2022/11/27 00:35:33;;;;;;;16.80;7.83;;;;;0.10;97492.00;;;;8498242;28;20218;-70
2022/11/27 00:39:36;;;;;;;16.10;6.67;;;;;0.10;97489.00;;;;8498212;27;20203;-71
2022/11/27 00:43:40;;;;;;;22.77;6.07;;;;;0.00;97468.00;;;;8504290;27;20190;-70
2022/11/27 00:47:47;;;;;;;25.30;6.27;;;;;0.00;97476.00;;;;8503718;27;20188;-70
2022/11/27 00:51:52;;;;;;;75.43;7.63;;;;;0.00;97459.00;;;;8503811;27;20282;-70
2022/11/27 00:56:28;;;;;;;44.53;8.77;;;;;-0.10;97462.00;;;;8503553;27;20215;-70
2022/11/27 01:00:31;;;;;;;19.07;8.07;;;;;0.00;97465.00;;;;8503156;27;20195;-70
2022/11/27 01:04:34;;;;;;;21.20;7.00;;;;;0.00;97468.00;;;;8503583;27;20198;-70
2022/11/27 01:08:39;;;;;;;10.27;5.53;;;;;0.00;97466.00;;;;8503518;27;20186;-70
2022/11/27 01:12:42;;;;;;;11.93;5.67;;;;;0.00;97466.00;;;;8503843;27;20628;-70
2022/11/27 01:16:45;;;;;;;14.33;7.17;;;;;0.00;97470.00;;;;8502861;27;20294;-69
2022/11/27 01:21:22;;;;;;;13.10;6.63;;;;;0.00;97470.00;;;;8503173;27;20213;-69
2022/11/27 01:25:27;;;;;;;16.57;7.40;;;;;0.00;97464.00;;;;8502532;27;20195;-69
2022/11/27 01:29:30;;;;;;;17.63;7.73;;;;;0.00;97470.00;;;;8502289;27;20210;-69
2022/11/27 01:33:34;;;;;;;12.47;6.47;;;;;-0.10;97463.00;;;;8501621;27;20190;-69
2022/11/27 01:37:37;;;;;;;10.27;5.70;;;;;-0.10;97456.00;;;;8502196;27;20654;-69
2022/11/27 01:46:42;;;;;;;18.53;6.13;;;;;0.00;97453.00;;;;8502181;27;20205;-68
2022/11/27 01:50:45;;;;;;;21.40;6.87;;;;;0.00;97449.00;;;;8494067;27;20580;-68
2022/11/27 01:55:25;;;;;;;17.00;6.27;;;;;0.10;97450.00;;;;8501891;27;20263;-68
2022/11/27 01:59:29;;;;;;;26.47;7.20;;;;;0.20;97452.00;;;;8501965;27;20218;-68
2022/11/27 02:03:34;;;;;;;25.87;7.20;;;;;0.30;97451.00;;;;8500771;27;20235;-68
2022/11/27 02:07:37;;;;;;;35.00;7.27;;;;;0.40;97448.00;;;;8501137;27;20233;-67
2022/11/27 02:12:17;;;;;;;24.93;6.50;;;;;0.50;97441.00;;;;8501682;27;20277;-67
2022/11/27 02:16:25;;;;;;;24.73;6.90;;;;;0.60;97437.00;;;;8500486;27;20214;-67
2022/11/27 02:20:40;;;;;;;23.63;6.83;;;;;0.70;97437.00;;;;8501687;27;20524;-67
2022/11/27 02:24:50;;;;;;;42.10;8.47;;;;;0.70;97432.00;;;;8500498;27;20191;-67
2022/11/27 02:29:07;;;;;;;41.13;7.67;;;;;0.80;97426.00;;;;8500909;27;20226;-67
2022/11/27 02:33:13;;;;;;;34.03;7.80;;;;;0.80;97423.00;;;;8499885;27;20191;-67
2022/11/27 02:37:49;;;;;;;51.80;8.33;;;;;0.90;97421.00;;;;8499366;27;20620;-67
2022/11/27 02:41:58;;;;;;;50.83;8.30;;;;;1.00;97418.00;;;;8500760;27;20206;-67
2022/11/27 02:46:28;;;;;;;40.53;8.20;;;;;1.00;97418.00;;;;8500073;27;20198;-67
2022/11/27 02:50:34;;;;;;;26.00;8.07;;;;;1.10;97412.00;;;;8500226;27;20289;-67
2022/11/27 02:54:41;;;;;;;72.93;10.03;;;;;1.10;97406.00;;;;8499492;27;20195;-67
2022/11/27 02:58:47;;;;;;;52.80;8.00;;;;;1.20;97403.00;;;;8499396;27;20660;-67
2022/11/27 03:02:58;;;;;;;36.43;8.03;;;;;1.20;97405.00;;;;8499298;27;20216;-67
2022/11/27 03:07:05;;;;;;;23.53;6.83;;;;;1.30;97403.00;;;;8498757;27;20184;-67
2022/11/27 03:11:10;;;;;;;26.70;6.63;;;;;1.40;97400.00;;;;8498929;27;20195;-67
2022/11/27 03:15:14;;;;;;;60.87;7.30;;;;;1.40;97384.00;;;;8498994;27;20220;-67
2022/11/27 03:19:23;;;;;;;67.30;7.83;;;;;1.50;97383.00;;;;8498749;27;20262;-67
2022/11/27 03:23:53;;;;;;;80.27;8.07;;;;;1.50;97390.00;;;;8498602;27;20194;-67
2022/11/27 03:28:00;;;;;;;46.27;6.43;;;;;1.50;97387.00;;;;8498982;27;20222;-67
2022/11/27 03:32:04;;;;;;;78.47;7.77;;;;;1.50;97387.00;;;;8498285;27;20205;-67
2022/11/27 03:36:14;;;;;;;73.80;7.40;;;;;1.50;97386.00;;;;8497987;28;20204;-67
2022/11/27 03:40:45;;;;;;;48.87;7.60;;;;;1.60;97379.00;;;;8498568;28;20202;-67
2022/11/27 03:44:55;;;;;;;46.00;6.70;;;;;1.60;97398.00;;;;8498257;28;20204;-67
2022/11/27 03:49:06;;;;;;;47.53;7.20;;;;;1.60;97387.00;;;;8498772;28;20195;-68
2022/11/27 03:53:19;;;;;;;103.80;9.00;;;;;1.70;97385.00;;;;8497950;28;20180;-67
2022/11/27 03:57:49;;;;;;;86.83;8.03;;;;;1.70;97381.00;;;;8498445;28;20231;-67
2022/11/27 04:01:52;;;;;;;52.67;7.50;;;;;1.80;97389.00;;;;8498073;28;20194;-67
2022/11/27 04:05:56;;;;;;;77.10;8.90;;;;;1.80;97376.00;;;;8498600;28;20239;-66
2022/11/27 04:10:00;;;;;;;61.50;8.00;;;;;1.80;97371.00;;;;8498596;28;20206;-67
2022/11/27 04:14:37;;;;;;;122.60;9.87;;;;;1.90;97362.00;;;;8498587;27;20196;-66
2022/11/27 04:18:41;;;;;;;59.60;7.87;;;;;1.90;97367.00;;;;8504670;27;20227;-66
2022/11/27 04:22:44;;;;;;;39.63;7.93;;;;;1.90;97364.00;;;;8505178;27;20195;-67
2022/11/27 04:27:20;;;;;;;102.43;9.80;;;;;1.90;97361.00;;;;8503782;27;20207;-66
2022/11/27 04:31:25;;;;;;;40.47;7.87;;;;;1.90;97355.00;;;;8502869;27;20189;-67
2022/11/27 04:36:02;;;;;;;103.33;9.40;;;;;2.00;97363.00;;;;8503752;27;20204;-66
2022/11/27 04:40:06;;;;;;;87.23;9.83;;;;;2.00;97358.00;;;;8503648;27;20225;-66
2022/11/27 04:44:11;;;;;;;74.23;9.13;;;;;2.10;97363.00;;;;8504806;27;20207;-66
2022/11/27 04:48:50;;;;;;;124.10;10.93;;;;;2.10;97371.00;;;;8504098;27;20651;-67
2022/11/27 04:52:53;;;;;;;95.50;10.57;;;;;2.10;97375.00;;;;8503665;27;20551;-67
2022/11/27 04:57:27;;;;;;;156.40;13.83;;;;;2.10;97370.00;;;;8503955;27;20235;-67
2022/11/27 05:01:30;;;;;;;111.87;10.90;;;;;2.10;97383.00;;;;8503139;27;20189;-66
2022/11/27 05:05:34;;;;;;;117.30;11.60;;;;;2.10;97384.00;;;;8504090;27;20332;-67
2022/11/27 05:09:37;;;;;;;50.93;8.63;;;;;2.20;97388.00;;;;8503435;27;20624;-67
2022/11/27 05:13:41;;;;;;;124.07;9.80;;;;;2.20;97381.00;;;;8503088;27;20211;-67
2022/11/27 05:17:44;;;;;;;99.47;8.93;;;;;2.30;97374.00;;;;8502813;27;20221;-67
2022/11/27 05:22:22;;;;;;;76.63;7.83;;;;;2.30;97359.00;;;;8502416;27;20192;-67
2022/11/27 05:26:25;;;;;;;57.93;7.27;;;;;2.30;97380.00;;;;8502190;27;20197;-67
2022/11/27 05:30:28;;;;;;;160.77;10.90;;;;;2.20;97369.00;;;;8501778;27;20264;-67
2022/11/27 05:35:06;;;;;;;112.83;9.73;;;;;2.20;97371.00;;;;8502710;27;20198;-67
2022/11/27 05:39:42;;;;;;;151.50;10.87;;;;;2.20;97377.00;;;;8502481;27;20254;-66
2022/11/27 05:48:44;;;;;;;118.10;10.07;;;;;2.20;97356.00;;;;8501064;27;20542;-67
2022/11/27 05:52:47;;;;;;;93.50;8.50;;;;;2.30;97354.00;;;;8501813;27;20566;-67
2022/11/27 05:57:27;;;;;;;111.57;9.37;;;;;2.40;97352.00;;;;8502110;27;20201;-67
2022/11/27 06:01:30;;;;;;;155.63;10.83;;;;;2.40;97354.00;;;;8501467;27;20593;-67
2022/11/27 06:05:33;;;;;;;125.70;10.97;;;;;2.50;97346.00;;;;8501268;27;20231;-67
2022/11/27 06:10:10;;;;;;;103.80;9.47;;;;;2.50;97345.00;;;;8500892;27;20207;-67
2022/11/27 06:14:14;;;;;;;120.00;10.43;;;;;2.50;97351.00;;;;8501742;27;20250;-67
2022/11/27 06:18:49;;;;;;;102.40;9.83;;;;;2.50;97350.00;;;;8500785;27;20221;-67
2022/11/27 06:22:52;;;;;;;173.80;12.10;;;;;2.50;97345.00;;;;8501004;27;20213;-67
2022/11/27 06:26:55;;;;;;;122.83;10.37;;;;;2.50;97356.00;;;;8500976;27;20208;-67
2022/11/27 06:31:32;;;;;;;126.97;10.67;;;;;2.50;97356.00;;;;8499595;27;20294;-68
2022/11/27 06:35:35;;;;;;;142.80;9.97;;;;;2.50;97362.00;;;;8500115;27;20190;-68
2022/11/27 06:39:38;;;;;;;187.27;10.97;;;;;2.60;97362.00;;;;8500006;27;20668;-68
2022/11/27 06:44:15;;;;;;;119.10;9.60;;;;;2.60;97362.00;;;;8500082;27;20200;-68
2022/11/27 06:48:20;;;;;;;160.27;11.17;;;;;2.60;97358.00;;;;8499926;27;20621;-68
2022/11/27 06:52:53;;;;;;;100.27;10.23;;;;;2.70;97349.00;;;;8500428;27;20197;-68
2022/11/27 06:57:31;;;;;;;83.47;7.87;;;;;2.70;97342.00;;;;8499368;27;20198;-68
2022/11/27 07:01:34;;;;;;;196.93;11.70;;;;;2.80;97347.00;;;;8500010;27;20532;-68
2022/11/27 07:05:38;;;;;;;153.50;11.33;;;;;2.90;97349.00;;;;8500232;27;20694;-68
2022/11/27 07:10:12;;;;;;;134.97;10.33;;;;;2.90;97342.00;;;;8492250;27;20200;-68
2022/11/27 07:14:49;;;;;;;187.90;11.97;;;;;3.00;97350.00;;;;8499991;27;20203;-68
2022/11/27 07:18:54;;;;;;;100.80;9.37;;;;;3.00;97339.00;;;;8498899;27;20555;-69
2022/11/27 07:23:29;;;;;;;140.67;11.60;;;;;3.00;97346.00;;;;8498171;27;20203;-69
2022/11/27 07:27:32;;;;;;;178.10;12.53;;;;;3.10;97351.00;;;;8498595;27;20221;-70
2022/11/27 07:31:35;;;;;;;156.90;10.83;;;;;3.20;97363.00;;;;8497975;27;20193;-70
2022/11/27 07:36:13;;;;;;;328.17;17.23;;;;;3.30;97353.00;;;;8498746;27;20244;-69
2022/11/27 07:40:48;;;;;;;83.33;8.27;;;;;3.30;97348.00;;;;8498360;28;20218;-71
2022/11/27 07:45:22;;;;;;;163.30;11.13;;;;;3.30;97340.00;;;;8498849;28;20205;-69
2022/11/27 07:49:59;;;;;;;243.53;12.63;;;;;3.30;97319.00;;;;8502189;27;20301;-70
2022/11/27 07:54:04;;;;;;;88.17;8.83;;;;;3.40;97309.00;;;;8505880;27;20190;-70
2022/11/27 07:58:39;;;;;;;130.70;11.90;;;;;3.40;97303.00;;;;8504662;27;20275;-70
2022/11/27 08:03:15;;;;;;;83.93;9.77;;;;;3.50;97305.00;;;;8502213;27;20195;-71
2022/11/27 08:07:18;;;;;;;110.03;9.70;;;;;3.50;97304.00;;;;8506036;27;20197;-71
2022/11/27 08:11:55;;;;;;;188.20;11.93;;;;;3.50;97296.00;;;;8504964;27;20538;-72
2022/11/27 08:16:34;;;;;;;150.63;11.60;;;;;3.50;97296.00;;;;8504146;27;20190;-72
2022/11/27 08:21:08;;;;;;;224.73;12.23;;;;;3.50;97300.00;;;;8504145;27;20235;-72
2022/11/27 08:25:45;;;;;;;170.37;12.40;;;;;3.60;97294.00;;;;8503957;27;20193;-71
2022/11/27 08:30:22;;;;;;;264.20;50.73;;;;;3.60;97292.00;;;;8504004;27;20210;-70
2022/11/27 08:34:27;;;;;;;182.10;11.63;;;;;3.70;97293.00;;;;8504566;27;20201;-71
2022/11/27 08:39:00;;;;;;;137.20;13.43;;;;;3.70;97286.00;;;;8503437;27;20269;-71
2022/11/27 08:43:35;;;;;;;181.30;18.53;;;;;3.80;97290.00;;;;8503738;27;20204;-71
2022/11/27 08:53:11;;;;;;;79.67;8.93;;;;;3.80;97272.00;;;;8497017;27;20194;-74
2022/11/27 08:57:45;;;;;;;93.63;11.17;;;;;3.80;97277.00;;;;8503602;27;20194;-73
2022/11/27 09:01:48;;;;;;;159.10;17.23;;;;;3.90;97276.00;;;;8501697;27;20229;-74
2022/11/27 09:06:26;;;;;;;130.03;10.43;;;;;4.10;97265.00;;;;8499760;27;20198;-74
2022/11/27 09:11:03;;;;;;;188.73;11.60;;;;;4.00;97272.00;;;;8499884;27;20200;-74
2022/11/27 09:15:36;;;;;;;209.30;15.30;;;;;4.00;97270.00;;;;8500182;27;20241;-74
2022/11/27 09:20:14;;;;;;;192.50;29.73;;;;;4.20;97263.00;;;;8502802;27;20228;-74
2022/11/27 09:24:48;;;;;;;235.33;20.10;;;;;4.20;97256.00;;;;8501755;27;20197;-74
2022/11/27 09:29:25;;;;;;;67.97;12.50;;;;;4.20;97259.00;;;;8504115;27;20220;-74
2022/11/27 09:34:05;;;;;;;109.60;16.70;;;;;4.30;97262.00;;;;8501797;27;20295;-75
2022/11/27 09:38:37;;;;;;;50.30;12.27;;;;;4.40;97277.00;;;;8501858;27;20228;-73
2022/11/27 09:43:14;;;;;;;118.03;10.67;;;;;4.40;97273.00;;;;8502066;27;20197;-73
2022/11/27 09:47:23;;;;;;;160.73;56.30;;;;;4.50;97274.00;;;;8501087;27;20213;-75
2022/11/27 09:51:34;;;;;;;64.10;12.30;;;;;4.50;97252.00;;;;8502164;27;20193;-75
2022/11/27 09:55:42;;;;;;;81.23;10.03;;;;;4.60;97255.00;;;;8501592;27;20192;-75
2022/11/27 09:59:50;;;;;;;62.83;9.83;;;;;4.70;97256.00;;;;8501125;27;20216;-72
2022/11/27 10:04:21;;;;;;;96.47;24.83;;;;;4.70;97238.00;;;;8501022;27;20201;-71
2022/11/27 10:08:58;;;;;;;72.27;17.87;;;;;4.80;97248.00;;;;8501713;27;20203;-71
2022/11/27 10:13:41;;;;;;;107.97;26.80;;;;;4.70;97240.00;;;;8500245;27;20193;-70
2022/11/27 10:18:14;;;;;;;50.43;10.40;;;;;4.80;97232.00;;;;8500805;27;20247;-72
2022/11/27 10:22:24;;;;;;;64.17;16.63;;;;;4.80;97227.00;;;;8498344;27;20209;-71
2022/11/27 10:26:31;;;;;;;85.23;20.13;;;;;4.80;97213.00;;;;8500438;27;20194;-71
2022/11/27 10:30:43;;;;;;;214.43;126.40;;;;;4.90;97211.00;;;;8500431;27;20214;-71
2022/11/27 10:34:51;;;;;;;78.57;12.87;;;;;4.90;97198.00;;;;8500662;27;20225;-71
2022/11/27 10:38:56;;;;;;;212.30;53.63;;;;;5.00;97206.00;;;;8500955;27;20223;-71
2022/11/27 10:43:07;;;;;;;102.33;13.80;;;;;5.00;97203.00;;;;8501609;27;20617;-71
2022/11/27 10:47:14;;;;;;;56.73;12.30;;;;;5.10;97202.00;;;;8500428;27;20512;-71
2022/11/27 10:51:20;;;;;;;66.23;11.27;;;;;5.20;97191.00;;;;8500816;27;20505;-71
2022/11/27 10:55:34;;;;;;;66.53;10.87;;;;;5.20;97193.00;;;;8499648;27;20197;-71
2022/11/27 10:59:43;;;;;;;75.67;10.60;;;;;5.30;97185.00;;;;8500036;27;20540;-71
2022/11/27 11:03:47;;;;;;;51.27;11.43;;;;;5.20;97183.00;;;;8499584;27;20178;-71
2022/11/27 11:08:03;;;;;;;49.43;10.70;;;;;5.30;97177.00;;;;8499845;27;20202;-71
2022/11/27 11:12:08;;;;;;;45.13;10.90;;;;;5.30;97173.00;;;;8500363;27;20190;-72
2022/11/27 11:16:45;;;;;;;58.90;11.23;;;;;5.40;97168.00;;;;8499602;27;20584;-71
2022/11/27 11:20:52;;;;;;;43.57;10.50;;;;;5.40;97170.00;;;;8499675;27;20224;-72
2022/11/27 11:24:55;;;;;;;54.33;10.63;;;;;5.40;97175.00;;;;8499684;27;20189;-71
2022/11/27 11:29:00;;;;;;;56.13;14.20;;;;;5.40;97164.00;;;;8498765;27;20212;-71
2022/11/27 11:33:04;;;;;;;50.73;11.93;;;;;5.50;97161.00;;;;8500181;27;20201;-71
2022/11/27 11:37:20;;;;;;;48.87;10.90;;;;;5.50;97150.00;;;;8499812;27;20231;-71
2022/11/27 11:41:23;;;;;;;54.77;11.73;;;;;5.50;97142.00;;;;8498900;28;20555;-71
2022/11/27 11:46:07;;;;;;;52.87;12.77;;;;;5.60;97135.00;;;;8499874;27;20550;-71
2022/11/27 11:50:13;;;;;;;44.40;13.63;;;;;5.60;97134.00;;;;8499022;28;20194;-71
2022/11/27 11:54:38;;;;;;;57.70;15.70;;;;;5.70;97126.00;;;;8499498;28;20259;-72
2022/11/27 11:58:56;;;;;;;57.20;15.57;;;;;5.60;97132.00;;;;8498391;27;20190;-71
2022/11/27 12:03:18;;;;;;;59.47;17.37;;;;;5.70;97124.00;;;;8498792;27;20185;-71
2022/11/27 12:07:40;;;;;;;37.30;9.97;;;;;5.60;97124.00;;;;8498470;28;20194;-71
2022/11/27 12:12:06;;;;;;;60.83;12.23;;;;;5.60;97125.00;;;;8498632;27;20186;-71
2022/11/27 12:16:16;;;;;;;63.87;13.00;;;;;5.60;97116.00;;;;8498026;28;20650;-71
2022/11/27 12:20:52;;;;;;;60.80;13.23;;;;;5.60;97104.00;;;;8499508;28;20225;-72
2022/11/27 12:25:25;;;;;;;92.47;22.77;;;;;5.50;97103.00;;;;8487768;27;20190;-72
2022/11/27 12:29:51;;;;;;;159.13;52.13;;;;;5.50;97105.00;;;;8497183;28;20217;-72
2022/11/27 12:34:02;;;;;;;111.57;53.00;;;;;5.60;97103.00;;;;8494047;27;20190;-72
2022/11/27 12:38:40;;;;;;;111.03;51.73;;;;;5.60;97105.00;;;;8501953;27;20196;-72
2022/11/27 12:43:13;;;;;;;85.30;27.70;;;;;5.50;97097.00;;;;8503652;27;20659;-72
2022/11/27 12:47:25;;;;;;;83.20;40.00;;;;;5.50;97078.00;;;;8503581;27;20484;-72
2022/11/27 12:51:55;;;;;;;102.83;54.77;;;;;5.50;97068.00;;;;8503729;27;20531;-72
2022/11/27 12:56:25;;;;;;;80.23;21.93;;;;;5.60;97062.00;;;;8503049;27;20515;-72
2022/11/27 13:01:05;;;;;;;61.20;23.00;;;;;5.60;97053.00;;;;8504608;27;20559;-71
2022/11/27 13:05:44;;;;;;;70.33;18.50;;;;;5.50;97060.00;;;;8503082;27;20301;-72
2022/11/27 13:10:20;;;;;;;69.17;13.63;;;;;5.50;97050.00;;;;8502997;27;20205;-72
2022/11/27 13:14:55;;;;;;;77.33;14.33;;;;;5.50;97035.00;;;;8502635;27;20623;-72
2022/11/27 13:19:28;;;;;;;69.03;14.47;;;;;5.40;97029.00;;;;8503024;27;20632;-72
2022/11/27 13:24:02;;;;;;;61.13;13.23;;;;;5.30;97037.00;;;;8502350;27;20530;-72
2022/11/27 13:28:42;;;;;;;71.43;14.07;;;;;5.30;97016.00;;;;8502549;27;20225;-72
2022/11/27 13:32:49;;;;;;;65.30;13.27;;;;;5.30;97013.00;;;;8501301;27;20190;-72
2022/11/27 13:37:26;;;;;;;58.30;13.17;;;;;5.20;97009.00;;;;8499848;27;20200;-72
2022/11/27 13:42:02;;;;;;;55.07;13.40;;;;;5.10;97006.00;;;;8501872;27;20210;-71
2022/11/27 13:46:10;;;;;;;60.47;12.67;;;;;5.10;97013.00;;;;8501951;27;20186;-74
2022/11/27 13:50:16;;;;;;;70.50;14.73;;;;;5.10;97015.00;;;;8501985;27;20574;-69
2022/11/27 13:54:53;;;;;;;68.60;15.87;;;;;5.10;97019.00;;;;8501143;27;20194;-72
2022/11/27 13:59:29;;;;;;;83.83;15.00;;;;;5.00;97008.00;;;;8501713;27;20624;-72
2022/11/27 14:04:09;;;;;;;81.73;16.77;;;;;5.10;97000.00;;;;8501419;27;20183;-71
2022/11/27 14:08:48;;;;;;;62.47;15.30;;;;;5.10;97003.00;;;;8501031;27;20240;-72
2022/11/27 14:13:16;;;;;;;62.33;14.27;;;;;5.20;96987.00;;;;8500622;27;20206;-72
2022/11/27 14:17:54;;;;;;;93.33;15.10;;;;;5.10;96988.00;;;;8501560;27;20631;-72
2022/11/27 14:22:35;;;;;;;89.03;16.60;;;;;5.10;96987.00;;;;8499746;27;20536;-72
2022/11/27 14:26:58;;;;;;;90.07;16.77;;;;;5.10;96978.00;;;;8500197;27;20201;-72
2022/11/27 14:31:36;;;;;;;89.27;16.37;;;;;5.20;96973.00;;;;8500359;27;20273;-73
2022/11/27 14:35:40;;;;;;;77.83;15.77;;;;;5.20;96969.00;;;;8501181;27;20225;-73
2022/11/27 14:39:45;;;;;;;88.20;16.33;;;;;5.20;96972.00;;;;8500163;27;20242;-73
2022/11/27 14:43:48;;;;;;;78.53;16.00;;;;;5.10;96972.00;;;;8500141;27;20240;-73
2022/11/27 14:48:26;;;;;;;81.80;16.73;;;;;5.00;96959.00;;;;8500309;27;20259;-73
2022/11/27 14:52:29;;;;;;;84.63;16.23;;;;;5.00;96957.00;;;;8499440;27;20202;-73
2022/11/27 14:57:14;;;;;;;87.17;16.30;;;;;4.90;96951.00;;;;8500311;27;20616;-73
2022/11/27 15:01:23;;;;;;;55.27;12.70;;;;;4.90;96943.00;;;;8499257;27;20222;-73
2022/11/27 15:05:28;;;;;;;75.50;17.10;;;;;4.80;96941.00;;;;8499624;27;20194;-73
2022/11/27 15:10:04;;;;;;;79.07;20.00;;;;;4.80;96948.00;;;;8499439;27;20200;-73
2022/11/27 15:14:13;;;;;;;61.00;14.43;;;;;4.70;96937.00;;;;8499076;27;20197;-73
2022/11/27 15:18:22;;;;;;;62.60;15.10;;;;;4.60;96932.00;;;;8499970;27;20239;-73
2022/11/27 15:22:54;;;;;;;62.93;15.60;;;;;4.60;96939.00;;;;8499139;27;20262;-73
2022/11/27 15:27:14;;;;;;;73.00;14.57;;;;;4.60;96939.00;;;;8499635;27;20186;-73
2022/11/27 15:31:24;;;;;;;71.97;15.17;;;;;4.50;96920.00;;;;8498959;27;20239;-74
2022/11/27 15:36:12;;;;;;;72.67;14.57;;;;;4.50;96908.00;;;;8499448;27;20589;-73
2022/11/27 15:40:32;;;;;;;67.37;15.50;;;;;4.50;96896.00;;;;8498278;27;20190;-73
2022/11/27 15:44:35;;;;;;;68.10;14.80;;;;;4.40;96900.00;;;;8498890;27;20280;-73
2022/11/27 15:49:14;;;;;;;79.53;15.70;;;;;4.40;96897.00;;;;8498885;27;20191;-73
2022/11/27 15:53:17;;;;;;;62.20;14.13;;;;;4.40;96888.00;;;;8499124;28;20201;-73
2022/11/27 15:57:54;;;;;;;71.13;15.40;;;;;4.40;96881.00;;;;8499040;27;20536;-73
2022/11/27 16:01:57;;;;;;;68.27;15.47;;;;;4.50;96882.00;;;;8498444;28;20221;-73
2022/11/27 16:06:37;;;;;;;69.20;14.30;;;;;4.40;96886.00;;;;8498456;27;20190;-73
2022/11/27 16:10:40;;;;;;;48.00;12.40;;;;;4.40;96904.00;;;;8502429;27;20627;-74
2022/11/27 16:15:14;;;;;;;56.03;14.07;;;;;4.40;96911.00;;;;8504796;27;20186;-74
2022/11/27 16:19:17;;;;;;;44.40;11.33;;;;;4.40;96920.00;;;;8505634;27;20243;-73
2022/11/27 16:23:21;;;;;;;65.03;12.73;;;;;4.30;96911.00;;;;8504323;27;20301;-74
2022/11/27 16:27:55;;;;;;;52.17;11.90;;;;;4.30;96907.00;;;;8505026;27;20186;-74
2022/11/27 16:32:06;;;;;;;52.87;11.93;;;;;4.30;96895.00;;;;8504701;27;20178;-74
2022/11/27 16:36:12;;;;;;;53.60;11.93;;;;;4.20;96904.00;;;;8504636;27;20274;-73
2022/11/27 16:40:48;;;;;;;53.63;11.50;;;;;4.20;96886.00;;;;8504215;27;20197;-73
2022/11/27 16:44:51;;;;;;;49.63;12.87;;;;;4.20;96878.00;;;;8505256;27;20651;-73
2022/11/27 16:48:56;;;;;;;57.50;12.73;;;;;4.20;96861.00;;;;8505027;27;20271;-73
2022/11/27 16:52:59;;;;;;;54.97;12.93;;;;;4.20;96852.00;;;;8504052;27;20204;-73
2022/11/27 16:57:03;;;;;;;46.67;11.80;;;;;4.10;96833.00;;;;8502174;27;20201;-73
2022/11/27 17:01:39;;;;;;;59.17;13.60;;;;;4.10;96826.00;;;;8504065;27;20686;-73
2022/11/27 17:05:42;;;;;;;33.07;8.97;;;;;4.10;96811.00;;;;8503693;27;20236;-73
2022/11/27 17:10:17;;;;;;;46.50;11.87;;;;;4.00;96793.00;;;;8504833;27;20210;-73
2022/11/27 17:14:22;;;;;;;60.63;13.67;;;;;4.00;96784.00;;;;8502881;27;20208;-73
2022/11/27 17:18:25;;;;;;;63.87;13.17;;;;;4.00;96780.00;;;;8502996;27;20190;-73
2022/11/27 17:22:29;;;;;;;53.60;12.27;;;;;4.00;96769.00;;;;8501669;27;20213;-73
2022/11/27 17:27:03;;;;;;;55.27;13.17;;;;;4.00;96757.00;;;;8502892;27;20205;-73
2022/11/27 17:31:11;;;;;;;43.73;11.10;;;;;4.00;96743.00;;;;8502734;27;20654;-73
2022/11/27 17:35:15;;;;;;;59.73;13.67;;;;;3.90;96731.00;;;;8502972;27;20282;-73
2022/11/27 17:39:49;;;;;;;74.93;15.07;;;;;3.90;96746.00;;;;8502149;27;20194;-73
2022/11/27 17:43:53;;;;;;;65.37;13.27;;;;;3.90;96736.00;;;;8497212;27;20232;-73
2022/11/27 17:48:31;;;;;;;54.50;12.87;;;;;4.00;96731.00;;;;8495052;27;20194;-74
2022/11/27 17:58:08;;;;;;;70.23;13.90;;;;;3.90;96723.00;;;;8503563;27;20214;-74
2022/11/27 18:02:45;;;;;;;64.70;14.40;;;;;3.90;96716.00;;;;8501013;27;20225;-74
2022/11/27 18:07:23;;;;;;;69.27;15.20;;;;;3.90;96708.00;;;;8503337;27;20205;-75
2022/11/27 18:11:57;;;;;;;57.50;13.73;;;;;3.90;96718.00;;;;8501295;27;20581;-75
2022/11/27 18:16:35;;;;;;;58.17;12.97;;;;;3.90;96716.00;;;;8501470;27;20198;-73
2022/11/27 18:21:13;;;;;;;65.80;15.20;;;;;3.90;96714.00;;;;8501077;27;20257;-73
2022/11/27 18:30:54;;;;;;;51.73;12.77;;;;;3.90;96718.00;;;;8501440;27;20274;-73
2022/11/27 18:35:28;;;;;;;69.43;15.37;;;;;3.90;96718.00;;;;8499446;27;20650;-73
2022/11/27 18:39:32;;;;;;;63.80;14.70;;;;;4.00;96709.00;;;;8498461;27;20580;-73
2022/11/27 18:44:06;;;;;;;59.20;14.27;;;;;4.00;96704.00;;;;8499370;27;20217;-73
2022/11/27 18:48:42;;;;;;;69.77;16.93;;;;;4.00;96703.00;;;;8499871;27;20194;-73
2022/11/27 18:58:19;;;;;;;73.10;15.27;;;;;4.00;96688.00;;;;8498140;27;20211;-74
2022/11/27 19:02:55;;;;;;;71.10;15.20;;;;;4.00;96679.00;;;;8499396;27;20228;-74
2022/11/27 19:07:29;;;;;;;75.37;16.30;;;;;4.00;96669.00;;;;8499875;27;20201;-75
2022/11/27 19:12:06;;;;;;;80.57;17.10;;;;;4.00;96683.00;;;;8498977;27;20247;-75
2022/11/27 19:16:45;;;;;;;58.70;15.30;;;;;4.00;96685.00;;;;8498948;27;20198;-75
2022/11/27 19:21:20;;;;;;;65.70;15.60;;;;;4.00;96681.00;;;;8499513;27;20186;-75
2022/11/27 19:25:57;;;;;;;72.80;18.17;;;;;4.00;96669.00;;;;8499914;27;20655;-75
2022/11/27 19:30:36;;;;;;;75.27;17.37;;;;;4.00;96667.00;;;;8498077;27;20255;-75
2022/11/27 19:35:11;;;;;;;62.07;17.57;;;;;4.00;96651.00;;;;8499463;27;20535;-74
2022/11/27 19:39:46;;;;;;;70.67;18.43;;;;;4.00;96649.00;;;;8499489;27;20190;-74
2022/11/27 19:44:22;;;;;;;68.97;18.27;;;;;4.00;96643.00;;;;8498009;27;20263;-74
2022/11/27 19:49:00;;;;;;;97.73;21.07;;;;;3.90;96634.00;;;;8499731;28;20662;-74
2022/11/27 19:58:36;;;;;;;78.23;17.23;;;;;3.90;96620.00;;;;8498216;28;20190;-74
2022/11/27 20:02:40;;;;;;;85.93;19.53;;;;;3.90;96609.00;;;;8497841;28;20224;-74
2022/11/27 20:07:14;;;;;;;81.97;18.70;;;;;3.90;96600.00;;;;8498740;28;20206;-74
2022/11/27 20:11:51;;;;;;;66.50;15.30;;;;;3.80;96592.00;;;;8494641;27;20201;-74
2022/11/27 20:15:55;;;;;;;65.07;15.57;;;;;3.80;96590.00;;;;8498841;28;20193;-74
2022/11/27 20:20:29;;;;;;;55.97;14.97;;;;;3.80;96587.00;;;;8497538;28;20243;-74
2022/11/27 20:25:03;;;;;;;87.70;19.00;;;;;3.80;96584.00;;;;8495533;27;20758;-74
2022/11/27 20:29:40;;;;;;;84.27;17.77;;;;;3.80;96577.00;;;;8498387;28;20255;-74
2022/11/27 20:34:20;;;;;;;81.50;16.20;;;;;3.80;96567.00;;;;8498232;27;20205;-74
2022/11/27 20:38:54;;;;;;;57.73;14.57;;;;;3.80;96567.00;;;;8498288;27;20570;-74
2022/11/27 20:43:31;;;;;;;68.87;16.97;;;;;3.80;96568.00;;;;8498156;27;20214;-74
2022/11/27 20:48:09;;;;;;;66.67;17.43;;;;;3.90;96570.00;;;;8496366;28;20194;-74
2022/11/27 20:57:45;;;;;;;75.03;16.60;;;;;3.90;96559.00;;;;8498382;27;20197;-75
2022/11/27 21:02:21;;;;;;;59.13;16.50;;;;;4.00;96565.00;;;;8503506;27;20233;-75
2022/11/27 21:06:58;;;;;;;61.60;15.50;;;;;4.00;96557.00;;;;8503025;27;20238;-75
2022/11/27 21:11:08;;;;;;;61.63;16.87;;;;;4.00;96556.00;;;;8503834;27;20531;-75
2022/11/27 21:15:37;;;;;;;64.00;18.47;;;;;4.00;96550.00;;;;8503615;27;20536;-75
2022/11/27 21:20:12;;;;;;;69.37;17.43;;;;;4.10;96557.00;;;;8502838;27;20243;-75
2022/11/27 21:24:49;;;;;;;63.07;16.30;;;;;4.10;96547.00;;;;8503518;27;20285;-75
2022/11/27 21:28:53;;;;;;;74.33;17.93;;;;;4.10;96537.00;;;;8502587;27;20213;-76
2022/11/27 21:33:28;;;;;;;80.00;18.50;;;;;4.20;96515.00;;;;8502108;27;20194;-75
2022/11/27 21:37:31;;;;;;;82.50;17.60;;;;;4.20;96512.00;;;;8502362;27;20236;-75
2022/11/27 21:41:35;;;;;;;79.47;18.70;;;;;4.30;96507.00;;;;8502948;27;20202;-75
2022/11/27 21:45:38;;;;;;;59.23;15.90;;;;;4.30;96512.00;;;;8502471;27;20689;-74
2022/11/27 21:50:16;;;;;;;65.23;16.90;;;;;4.30;96500.00;;;;8502539;27;20185;-74
2022/11/27 21:54:20;;;;;;;70.60;17.43;;;;;4.30;96498.00;;;;8501021;27;20584;-74
2022/11/27 21:59:05;;;;;;;76.97;17.57;;;;;4.30;96491.00;;;;8501938;27;20198;-74
2022/11/27 22:03:39;;;;;;;67.67;18.50;;;;;4.30;96490.00;;;;8501500;27;20214;-74
2022/11/27 22:08:17;;;;;;;73.30;20.53;;;;;4.40;96494.00;;;;8502527;27;20315;-74